LOWI/INN METAR and TAF weather

Enter ICAO airport designator
Station Type Date Time Source
LOWI METAR 2019/02/17 07:20 UTC NOAA

LOWI 170720Z VRB01KT CAVOK M04/M05 Q1030 NOSIG


Station Type Date Time Source
LOWI Decoded METAR 2019/02/17 07:20 UTC NOAA

Innsbruck-Flughafen, Austria (LOWI) 47-16N 011-21E 593M
Feb 17, 2019 - 02:20 AM EST / 2019.02.17 0720 UTC
Wind: Variable at 1 MPH (1 KT):0
Visibility: greater than 7 mile(s):0
Temperature: 24 F (-4 C)
Dew Point: 23 F (-5 C)
Relative Humidity: 92%
Pressure (altimeter): 30.42 in. Hg (1030 hPa)
ob: LOWI 170720Z VRB01KT CAVOK M04/M05 Q1030 NOSIG
cycle: 7

Station Type Date Time Source
LOWI TAF 2019/02/17 06:21 UTC NOAA

TAF LOWI 170515Z 1706/1806 VRB02KT CAVOK TX13/1714Z TNM05/1706Z


Example: see airport list